Time;durP1;ratioP1;P1;durP2;ratioP2;P2;SDS_P1;SDS_P2;PMS_P1;PMS_P2;Temp;Humidity;BMP_temperature;BMP_pressure;BME280_temperature;BME280_humidity;BME280_pressure;Samples;Min_cycle;Max_cycle;Signal;HPM_P1;HPM_P2
2023/03/23 00:03:46;;;;;;;13.50;8.60;;;;;;;17.25;54.69;98661.98;267336;1252;24209;-72
2023/03/23 00:09:53;;;;;;;15.70;8.30;;;;;;;17.25;54.59;98657.36;269212;1267;25376;-73
2023/03/23 00:15:56;;;;;;;15.60;8.50;;;;;;;17.17;54.67;98655.36;267541;1259;22520;-73
2023/03/23 00:22:00;;;;;;;14.40;7.80;;;;;;;17.03;54.77;98658.45;267063;1270;25246;-72
2023/03/23 00:28:02;;;;;;;12.70;8.00;;;;;;;16.90;55.12;98655.70;266961;1274;25297;-73
2023/03/23 00:34:04;;;;;;;11.40;7.00;;;;;;;17.06;54.83;98655.23;267534;1269;25370;-71
2023/03/23 00:40:09;;;;;;;12.50;7.80;;;;;;;17.08;54.67;98652.62;267566;1266;22543;-71
2023/03/23 00:46:13;;;;;;;11.00;7.10;;;;;;;16.97;54.76;98650.48;267691;1266;22710;-72
2023/03/23 00:52:14;;;;;;;11.20;7.20;;;;;;;16.84;54.97;98647.11;272755;1258;22533;-70
2023/03/23 00:58:15;;;;;;;11.30;7.00;;;;;;;16.78;54.99;98644.05;267216;1268;22949;-70
2023/03/23 01:04:17;;;;;;;10.70;6.60;;;;;;;16.69;55.29;98638.57;269737;1262;22616;-71
2023/03/23 01:10:18;;;;;;;12.10;6.80;;;;;;;16.46;55.68;98633.83;267222;1270;24223;-72
2023/03/23 01:16:20;;;;;;;12.60;7.50;;;;;;;16.54;55.50;98633.51;267360;1262;22524;-73
2023/03/23 01:22:21;;;;;;;11.90;6.70;;;;;;;16.45;55.56;98634.11;267077;1266;25352;-73
2023/03/23 01:28:22;;;;;;;11.10;6.50;;;;;;;16.22;55.96;98633.78;266809;1269;22537;-72
2023/03/23 01:34:23;;;;;;;11.50;6.80;;;;;;;16.04;56.21;98632.23;267168;1268;25265;-72
2023/03/23 01:40:26;;;;;;;10.20;6.30;;;;;;;16.01;56.28;98631.44;267078;1269;23113;-73
2023/03/23 01:46:30;;;;;;;12.60;7.10;;;;;;;16.02;56.39;98627.25;266914;1262;22543;-72
2023/03/23 01:52:33;;;;;;;11.10;6.50;;;;;;;15.87;56.66;98635.09;266716;1266;24123;-72
2023/03/23 01:58:38;;;;;;;10.90;6.90;;;;;;;15.88;56.75;98638.93;267294;1263;25295;-72
2023/03/23 02:04:41;;;;;;;11.30;6.30;;;;;;;15.94;56.58;98635.08;267287;1269;25294;-71
2023/03/23 02:10:43;;;;;;;9.60;6.00;;;;;;;16.11;56.11;98634.48;268095;1268;22557;-71
2023/03/23 02:16:53;;;;;;;9.60;5.80;;;;;;;16.24;55.92;98637.41;267585;1266;24168;-71
2023/03/23 02:23:00;;;;;;;8.20;5.60;;;;;;;16.42;56.13;98638.19;267197;1255;25304;-71
2023/03/23 02:29:35;;;;;;;9.00;5.40;;;;;;;16.43;55.75;98633.30;267123;1271;25915;-71
2023/03/23 02:35:39;;;;;;;9.90;5.40;;;;;;;16.19;55.87;98634.02;267029;1269;22579;-71
2023/03/23 02:41:55;;;;;;;11.70;5.90;;;;;;;16.17;55.67;98632.66;266957;1262;24882;-71
2023/03/23 02:47:56;;;;;;;8.90;5.60;;;;;;;16.10;55.61;98632.70;267659;1266;23460;-71
2023/03/23 02:53:58;;;;;;;11.20;5.40;;;;;;;15.88;56.87;98635.63;267234;1269;25317;-71
2023/03/23 02:59:59;;;;;;;10.70;6.10;;;;;;;16.15;56.84;98630.66;267354;1269;22527;-73
2023/03/23 03:06:31;;;;;;;9.50;5.70;;;;;;;16.22;56.67;98624.45;267621;1262;25271;-74
2023/03/23 03:12:47;;;;;;;8.60;5.10;;;;;;;16.35;55.94;98618.20;267546;1269;24211;-73
2023/03/23 03:18:57;;;;;;;7.70;4.90;;;;;;;16.27;55.93;98611.73;267101;1271;22618;-74
2023/03/23 03:24:59;;;;;;;8.50;5.40;;;;;;;16.22;56.07;98612.52;266951;1259;25457;-71
2023/03/23 03:31:03;;;;;;;11.00;5.40;;;;;;;16.22;56.31;98609.10;266785;1265;23977;-72
2023/03/23 03:37:05;;;;;;;9.00;5.80;;;;;;;16.15;56.11;98607.14;266806;1253;24093;-72
2023/03/23 03:43:07;;;;;;;8.00;5.10;;;;;;;16.00;56.25;98602.21;267683;1266;22728;-72
2023/03/23 03:49:12;;;;;;;9.30;5.50;;;;;;;16.03;56.27;98603.17;266988;1270;23247;-73
2023/03/23 03:55:14;;;;;;;9.50;5.90;;;;;;;16.19;56.12;98600.39;267586;1268;23029;-71
2023/03/23 04:01:23;;;;;;;8.70;5.60;;;;;;;16.16;56.20;98596.01;266972;1266;22609;-74
2023/03/23 04:07:26;;;;;;;10.80;5.80;;;;;;;16.23;56.10;98591.46;267024;1272;25392;-73
2023/03/23 04:13:27;;;;;;;12.10;6.30;;;;;;;16.25;56.20;98593.19;266731;1268;24430;-74
2023/03/23 04:19:47;;;;;;;10.80;5.80;;;;;;;16.18;56.65;98594.96;266897;1271;26569;-73
2023/03/23 04:25:51;;;;;;;12.20;6.50;;;;;;;16.29;56.07;98594.20;267159;1273;24058;-71
2023/03/23 04:31:52;;;;;;;11.50;6.70;;;;;;;16.16;56.33;98596.00;267245;1269;22546;-71
2023/03/23 04:38:01;;;;;;;12.10;6.80;;;;;;;15.83;57.19;98591.77;267126;1269;25349;-72
2023/03/23 04:44:04;;;;;;;12.20;7.20;;;;;;;15.67;57.37;98590.64;268171;1272;22619;-71
2023/03/23 04:50:12;;;;;;;13.10;6.50;;;;;;;15.61;57.54;98591.80;267311;1269;25342;-71
2023/03/23 04:56:15;;;;;;;11.60;7.20;;;;;;;15.57;57.87;98595.71;267388;1272;22572;-73
2023/03/23 05:02:19;;;;;;;11.10;6.60;;;;;;;15.70;57.62;98595.19;267490;1265;24340;-73
2023/03/23 05:08:26;;;;;;;15.60;8.50;;;;;;;15.76;57.69;98606.34;266899;1269;22549;-75
2023/03/23 05:14:27;;;;;;;15.00;9.00;;;;;;;15.96;57.64;98605.05;267380;1272;22547;-73
2023/03/23 05:20:42;;;;;;;12.20;7.20;;;;;;;15.91;57.45;98604.56;267263;1272;23877;-73
2023/03/23 05:26:52;;;;;;;13.30;8.30;;;;;;;15.76;57.57;98608.82;266840;1269;22549;-73
2023/03/23 05:32:57;;;;;;;16.90;9.60;;;;;;;15.89;58.07;98608.91;267484;1267;26302;-71
2023/03/23 05:39:25;;;;;;;14.10;8.60;;;;;;;16.01;57.83;98603.61;267620;1266;24342;-71
2023/03/23 05:45:35;;;;;;;15.00;8.20;;;;;;;16.42;56.86;98604.44;267554;1266;25258;-71
2023/03/23 05:51:38;;;;;;;20.10;11.50;;;;;;;16.57;56.96;98602.17;266899;1266;22576;-71
2023/03/23 05:57:40;;;;;;;20.10;11.50;;;;;;;16.95;56.68;98607.94;267634;1271;25504;-70
2023/03/23 06:03:58;;;;;;;19.30;11.50;;;;;;;17.41;55.82;98615.75;267416;1265;22537;-72
2023/03/23 06:10:08;;;;;;;20.90;12.20;;;;;;;17.75;55.76;98618.83;267637;1272;22539;-72
2023/03/23 06:16:12;;;;;;;17.60;11.60;;;;;;;18.53;54.70;98610.42;268991;1266;23039;-71
2023/03/23 06:22:22;;;;;;;15.60;10.20;;;;;;;18.91;54.74;98597.16;269447;1271;25502;-71
2023/03/23 06:28:45;;;;;;;17.30;11.60;;;;;;;19.24;54.00;98586.72;268220;1272;23266;-80
2023/03/23 06:34:47;;;;;;;16.20;10.60;;;;;;;19.55;54.31;98590.45;268057;1266;22527;-71
2023/03/23 06:41:23;;;;;;;17.00;9.90;;;;;;;20.06;53.71;98586.98;267288;1274;22578;-71
2023/03/23 06:47:29;;;;;;;15.10;8.80;;;;;;;20.49;53.08;98587.17;267105;1264;24349;-71
2023/03/23 06:53:31;;;;;;;9.00;5.90;;;;;;;20.87;52.87;98580.58;268116;1271;22565;-71
2023/03/23 06:59:33;;;;;;;8.70;4.40;;;;;;;21.26;51.94;98580.64;267203;1266;22999;-71
2023/03/23 07:05:35;;;;;;;4.90;2.90;;;;;;;21.55;50.25;98587.60;267067;1270;22578;-72
2023/03/23 07:11:37;;;;;;;5.60;3.00;;;;;;;21.88;48.97;98593.88;267303;1269;22681;-71
2023/03/23 07:17:45;;;;;;;3.90;3.10;;;;;;;21.88;48.27;98588.79;267388;1270;22648;-71
2023/03/23 07:24:15;;;;;;;4.90;3.00;;;;;;;22.56;47.14;98584.82;267540;1264;22877;-72
2023/03/23 07:30:35;;;;;;;;;;;;;;;23.13;46.54;98588.77;267365;1269;22649;-71
2023/03/23 07:36:37;;;;;;;6.60;3.10;;;;;;;23.50;45.86;98585.92;272889;1271;22534;-69
2023/03/23 07:42:45;;;;;;;5.00;2.80;;;;;;;23.55;45.41;98582.77;272580;1273;22150;-69
2023/03/23 07:48:46;;;;;;;4.30;2.90;;;;;;;23.77;44.57;98576.19;273873;1270;22163;-69
2023/03/23 07:54:47;;;;;;;5.30;2.90;;;;;;;23.84;43.80;98584.55;271631;1272;132753;-69
2023/03/23 08:01:04;;;;;;;3.40;2.80;;;;;;;24.38;42.92;98578.84;267364;1269;22528;-71
2023/03/23 08:07:08;;;;;;;4.60;2.90;;;;;;;24.70;42.07;98579.10;269174;1267;22784;-70
2023/03/23 08:13:19;;;;;;;6.10;3.20;;;;;;;24.75;42.06;98584.30;267608;1271;24088;-71
2023/03/23 08:19:42;;;;;;;6.70;3.70;;;;;;;24.30;42.49;98587.27;266843;1268;22629;-70
2023/03/23 08:26:06;;;;;;;6.50;3.10;;;;;;;24.44;42.19;98596.05;268058;1268;24439;-71
2023/03/23 08:32:27;;;;;;;4.70;3.00;;;;;;;24.71;41.88;98598.83;269106;1259;26530;-70
2023/03/23 08:38:59;;;;;;;4.50;2.60;;;;;;;24.87;41.55;98595.42;266863;1267;23886;-70
2023/03/23 08:45:23;;;;;;;7.10;2.80;;;;;;;24.53;41.60;98600.30;268483;1259;24745;-71
2023/03/23 08:51:48;;;;;;;4.40;2.60;;;;;;;24.75;41.78;98593.97;267602;1269;22547;-70
2023/03/23 08:58:00;;;;;;;5.50;3.00;;;;;;;24.87;41.61;98587.80;267322;1265;26481;-71
2023/03/23 09:04:23;;;;;;;4.40;2.60;;;;;;;25.14;41.21;98591.86;267365;1265;25302;-70
2023/03/23 09:10:46;;;;;;;5.20;2.50;;;;;;;25.30;40.92;98590.01;267191;1267;22526;-71
2023/03/23 09:16:48;;;;;;;5.00;2.80;;;;;;;25.25;40.90;98592.94;266792;1260;23922;-71
2023/03/23 09:22:51;;;;;;;3.50;2.60;;;;;;;25.12;40.79;98589.55;267319;1268;22524;-71
2023/03/23 09:28:53;;;;;;;5.80;2.70;;;;;;;25.13;40.65;98592.00;267562;1264;24778;-70
2023/03/23 09:34:56;;;;;;;3.50;2.00;;;;;;;24.77;40.48;98588.70;267090;1269;22635;-70
2023/03/23 09:41:04;;;;;;;4.00;2.40;;;;;;;25.43;39.79;98590.95;267511;1267;22643;-71
2023/03/23 09:47:15;;;;;;;3.90;2.40;;;;;;;25.91;39.17;98585.67;267823;1270;24219;-70
2023/03/23 09:53:22;;;;;;;4.40;2.60;;;;;;;26.24;38.88;98573.27;266816;1270;22646;-70
2023/03/23 09:59:43;;;;;;;3.80;2.30;;;;;;;26.15;38.56;98570.20;267043;1263;22610;-71
2023/03/23 10:05:46;;;;;;;4.90;2.60;;;;;;;26.11;38.50;98562.70;267652;1264;22530;-71
2023/03/23 10:11:53;;;;;;;4.00;2.50;;;;;;;25.82;38.45;98562.85;268166;1267;22554;-70
2023/03/23 10:18:17;;;;;;;2.70;2.00;;;;;;;25.84;37.99;98560.47;267652;1264;24269;-71
2023/03/23 10:24:35;;;;;;;2.70;2.10;;;;;;;26.18;37.53;98556.37;267390;1273;22536;-71
2023/03/23 10:30:40;;;;;;;3.80;2.30;;;;;;;25.87;37.63;98549.28;267932;1270;22644;-71
2023/03/23 10:36:59;;;;;;;4.30;2.20;;;;;;;25.67;37.72;98539.52;267269;1267;25363;-70
2023/03/23 10:43:01;;;;;;;4.50;2.40;;;;;;;25.56;37.79;98534.25;267034;1267;25237;-71
2023/03/23 10:49:06;;;;;;;3.50;2.10;;;;;;;25.61;37.24;98528.13;267691;1267;22559;-71
2023/03/23 10:55:26;;;;;;;3.80;2.30;;;;;;;25.56;36.69;98522.30;267405;1270;23884;-70
2023/03/23 11:01:33;;;;;;;4.00;2.00;;;;;;;25.25;35.80;98514.30;267529;1267;25464;-71
2023/03/23 11:07:35;;;;;;;3.30;2.00;;;;;;;25.14;35.40;98510.15;267739;1266;22592;-71
2023/03/23 11:13:44;;;;;;;3.20;2.00;;;;;;;25.08;35.34;98507.05;267600;1260;22545;-71
2023/03/23 11:19:45;;;;;;;4.80;1.80;;;;;;;25.75;35.12;98502.67;267322;1270;24170;-71
2023/03/23 11:26:10;;;;;;;2.80;1.70;;;;;;;25.63;35.07;98500.59;266754;1270;22651;-71
2023/03/23 11:32:14;;;;;;;3.80;1.90;;;;;;;26.06;34.72;98497.08;266974;1269;22580;-71
2023/03/23 11:38:23;;;;;;;3.90;1.90;;;;;;;26.35;34.66;98492.08;267501;1270;26319;-71
2023/03/23 11:44:36;;;;;;;3.70;1.80;;;;;;;26.24;34.54;98486.65;268298;1267;22524;-72
2023/03/23 11:51:17;;;;;;;3.20;2.00;;;;;;;27.25;33.38;98486.55;267345;1260;22547;-70
2023/03/23 11:57:19;;;;;;;5.00;2.00;;;;;;;27.31;33.39;98488.85;267463;1267;22532;-72
2023/03/23 12:03:46;;;;;;;3.80;2.10;;;;;;;27.39;33.39;98480.11;268271;1266;22536;-71
2023/03/23 12:09:53;;;;;;;3.80;2.30;;;;;;;26.88;33.74;98482.16;266883;1273;23056;-70
2023/03/23 12:16:00;;;;;;;4.20;2.10;;;;;;;26.71;34.16;98485.38;267315;1267;25297;-70
2023/03/23 12:22:15;;;;;;;3.10;1.90;;;;;;;27.13;33.79;98484.20;268587;1265;22660;-71
2023/03/23 12:28:20;;;;;;;3.90;1.90;;;;;;;27.07;33.68;98484.80;267831;1267;22524;-71
2023/03/23 12:34:38;;;;;;;3.90;1.90;;;;;;;27.06;33.82;98485.63;267259;1260;25337;-71
2023/03/23 12:41:12;;;;;;;4.10;2.20;;;;;;;26.73;34.27;98483.20;267643;1267;25223;-71
2023/03/23 12:47:30;;;;;;;3.80;1.90;;;;;;;26.78;34.35;98483.98;267332;1253;24215;-71
2023/03/23 12:53:43;;;;;;;3.30;2.00;;;;;;;26.87;34.38;98476.64;268169;1252;22337;-70
2023/03/23 12:59:55;;;;;;;3.70;2.00;;;;;;;27.01;34.35;98476.67;266745;1255;22538;-71
2023/03/23 13:06:06;;;;;;;3.40;2.50;;;;;;;27.17;34.58;98479.48;267916;1262;22541;-70
2023/03/23 13:12:09;;;;;;;3.50;2.20;;;;;;;27.20;34.68;98483.70;267401;1266;25800;-70
2023/03/23 13:18:28;;;;;;;2.90;2.00;;;;;;;26.93;34.89;98483.00;267268;1270;25021;-72
2023/03/23 13:24:32;;;;;;;3.30;2.10;;;;;;;26.73;35.37;98483.37;268625;1256;22583;-71
2023/03/23 13:30:33;;;;;;;5.30;2.50;;;;;;;26.57;35.73;98484.80;267956;1268;24368;-70
2023/03/23 13:36:40;;;;;;;7.30;2.70;;;;;;;26.51;35.89;98485.46;267170;1267;23193;-71
2023/03/23 13:42:53;;;;;;;4.30;2.30;;;;;;;26.45;36.10;98475.13;267722;1259;24029;-72
2023/03/23 13:49:10;;;;;;;5.70;2.20;;;;;;;26.63;36.04;98471.83;267592;1266;22547;-71
2023/03/23 13:55:16;;;;;;;3.80;1.50;;;;;;;26.51;36.16;98475.77;267242;1268;22549;-72
2023/03/23 14:01:19;;;;;;;2.90;1.40;;;;;;;26.69;36.01;98474.67;267835;1271;23871;-71
2023/03/23 14:07:20;;;;;;;2.40;1.60;;;;;;;27.02;35.80;98478.84;268091;1259;25284;-71
2023/03/23 14:13:43;;;;;;;4.00;1.60;;;;;;;27.13;35.59;98469.25;267898;1250;24238;-70
2023/03/23 14:19:51;;;;;;;4.10;1.30;;;;;;;27.11;35.65;98467.70;267549;1257;22545;-70
2023/03/23 14:26:10;;;;;;;2.40;1.60;;;;;;;27.01;35.72;98464.70;266951;1271;22559;-70
2023/03/23 14:32:17;;;;;;;2.90;1.50;;;;;;;26.75;35.98;98452.33;268027;1267;23042;-71
2023/03/23 14:38:31;;;;;;;3.10;1.70;;;;;;;26.89;35.87;98451.08;267205;1269;22549;-71
2023/03/23 14:44:34;;;;;;;3.70;1.50;;;;;;;27.28;35.48;98448.34;266894;1267;22528;-71
2023/03/23 14:50:35;;;;;;;4.90;1.50;;;;;;;27.36;35.50;98449.08;266991;1267;22667;-71
2023/03/23 14:56:39;;;;;;;3.00;1.60;;;;;;;27.53;35.57;98454.38;266792;1267;22582;-70
2023/03/23 15:02:41;;;;;;;5.00;2.20;;;;;;;27.37;36.20;98453.13;266882;1267;24202;-71
2023/03/23 15:08:43;;;;;;;6.00;2.60;;;;;;;27.27;36.48;98455.66;267603;1266;25253;-71
2023/03/23 15:14:48;;;;;;;4.80;2.70;;;;;;;27.34;36.32;98456.66;267018;1268;22887;-71
2023/03/23 15:20:49;;;;;;;4.60;2.60;;;;;;;27.38;36.26;98458.18;269484;1268;22612;-71
2023/03/23 15:26:50;;;;;;;4.00;2.80;;;;;;;27.16;36.33;98453.25;267211;1268;24203;-70
2023/03/23 15:32:59;;;;;;;5.50;2.50;;;;;;;27.34;36.25;98452.83;267040;1266;22569;-70
2023/03/23 15:39:02;;;;;;;5.70;2.80;;;;;;;27.22;36.64;98454.27;267303;1268;22534;-71
2023/03/23 15:45:09;;;;;;;5.60;2.30;;;;;;;27.39;36.53;98457.90;267746;1268;22706;-70
2023/03/23 15:51:12;;;;;;;3.70;2.30;;;;;;;27.32;37.05;98448.59;268220;1255;22547;-71
2023/03/23 15:57:14;;;;;;;5.10;2.40;;;;;;;27.27;37.47;98443.58;267009;1266;22654;-71
2023/03/23 16:03:49;;;;;;;5.90;2.60;;;;;;;27.13;37.76;98443.47;267769;1267;26037;-70
2023/03/23 16:09:50;;;;;;;7.50;3.00;;;;;;;26.94;37.87;98449.08;267560;1268;25422;-71
2023/03/23 16:15:52;;;;;;;5.50;2.80;;;;;;;26.81;38.02;98451.90;267198;1269;22545;-71
2023/03/23 16:21:54;;;;;;;8.30;2.60;;;;;;;26.50;38.41;98454.65;267553;1266;22534;-70
2023/03/23 16:27:55;;;;;;;7.50;2.80;;;;;;;26.23;38.60;98454.27;267251;1270;24275;-71
2023/03/23 16:33:57;;;;;;;7.50;2.90;;;;;;;26.21;38.84;98448.88;267161;1267;24216;-71
2023/03/23 16:39:59;;;;;;;6.90;2.80;;;;;;;26.01;38.91;98451.54;267529;1266;25322;-71
2023/03/23 16:46:01;;;;;;;6.50;3.10;;;;;;;25.70;39.12;98449.98;268057;1270;24561;-71
2023/03/23 16:52:02;;;;;;;7.30;3.10;;;;;;;25.60;39.06;98450.80;267180;1252;22520;-72
2023/03/23 16:58:05;;;;;;;5.80;3.00;;;;;;;25.48;39.43;98447.95;267364;1268;24210;-72
2023/03/23 17:04:18;;;;;;;8.10;3.30;;;;;;;24.96;40.15;98454.25;267254;1262;24199;-71
2023/03/23 17:10:21;;;;;;;7.20;3.10;;;;;;;24.76;40.64;98454.84;267060;1254;23023;-70
2023/03/23 17:16:22;;;;;;;7.30;3.50;;;;;;;24.44;40.61;98463.08;267230;1259;26510;-70
2023/03/23 17:22:24;;;;;;;7.20;3.60;;;;;;;24.43;40.20;98469.23;267327;1268;22527;-71
2023/03/23 17:28:26;;;;;;;9.00;3.20;;;;;;;24.38;40.07;98470.25;267368;1268;23282;-71
2023/03/23 17:34:28;;;;;;;5.80;3.10;;;;;;;24.36;39.84;98471.05;267205;1266;22574;-71
2023/03/23 17:40:29;;;;;;;6.30;3.10;;;;;;;24.33;39.83;98472.34;267342;1253;22531;-71
2023/03/23 17:46:31;;;;;;;8.70;4.00;;;;;;;24.26;39.84;98471.71;267438;1269;26103;-71
2023/03/23 17:52:33;;;;;;;6.40;3.60;;;;;;;24.10;39.73;98470.16;267372;1260;23555;-70
2023/03/23 17:58:35;;;;;;;11.80;5.10;;;;;;;23.88;39.75;98481.67;267629;1259;22582;-71
2023/03/23 18:04:37;;;;;;;10.70;5.30;;;;;;;23.75;39.82;98491.06;267244;1269;22771;-70
2023/03/23 18:10:39;;;;;;;11.00;5.40;;;;;;;24.00;39.74;98498.27;267435;1266;25342;-71
2023/03/23 18:16:42;;;;;;;10.00;4.80;;;;;;;24.07;39.99;98506.63;266804;1255;22632;-70
2023/03/23 18:22:43;;;;;;;12.50;4.70;;;;;;;23.83;41.30;98511.20;267762;1269;25855;-71
2023/03/23 18:28:46;;;;;;;10.40;5.60;;;;;;;23.57;40.68;98501.46;266921;1265;22639;-70
2023/03/23 18:34:48;;;;;;;12.30;5.80;;;;;;;23.38;40.48;98496.98;267174;1269;22533;-71
2023/03/23 18:40:51;;;;;;;10.70;5.80;;;;;;;23.28;40.61;98504.17;266867;1269;25422;-70
2023/03/23 18:46:52;;;;;;;8.00;4.40;;;;;;;23.38;41.15;98525.11;267526;1268;22538;-71
2023/03/23 18:52:54;;;;;;;11.70;4.90;;;;;;;23.36;41.45;98532.23;267768;1266;23091;-71
2023/03/23 18:58:56;;;;;;;8.80;4.60;;;;;;;23.35;41.55;98535.23;269253;1268;22600;-71
2023/03/23 19:04:57;;;;;;;9.60;5.10;;;;;;;23.30;42.25;98536.14;269319;1259;23330;-72
2023/03/23 19:11:02;;;;;;;11.10;4.90;;;;;;;23.36;41.56;98540.83;271019;1268;25089;-70
2023/03/23 19:17:05;;;;;;;13.10;5.70;;;;;;;23.26;42.71;98540.11;269436;1269;22400;-70
2023/03/23 19:23:07;;;;;;;12.80;6.10;;;;;;;23.13;42.82;98546.86;272322;1266;24281;-69
2023/03/23 19:29:13;;;;;;;15.70;6.80;;;;;;;23.28;42.23;98542.23;268540;1259;24752;-72
2023/03/23 19:35:18;;;;;;;14.10;6.60;;;;;;;23.31;41.98;98548.08;269290;1267;23357;-71
2023/03/23 19:41:20;;;;;;;13.20;7.20;;;;;;;23.24;41.66;98547.54;267537;1259;24183;-72
2023/03/23 19:47:22;;;;;;;14.50;7.50;;;;;;;22.91;42.12;98542.27;269385;1268;22862;-71
2023/03/23 19:53:24;;;;;;;13.90;6.70;;;;;;;22.80;42.11;98541.16;267669;1259;194111;-73
2023/03/23 19:59:28;;;;;;;13.80;7.00;;;;;;;22.87;41.79;98541.05;270350;1267;22620;-72
2023/03/23 20:05:29;;;;;;;11.40;7.30;;;;;;;22.83;41.83;98538.39;267574;1266;22719;-72
2023/03/23 20:11:31;;;;;;;13.10;7.50;;;;;;;22.73;41.94;98535.69;269849;1259;24329;-73
2023/03/23 20:17:33;;;;;;;11.20;6.50;;;;;;;22.80;41.86;98542.32;267700;1270;22985;-71
2023/03/23 20:23:35;;;;;;;11.50;6.70;;;;;;;22.80;41.76;98552.74;268143;1268;22653;-71
2023/03/23 20:29:37;;;;;;;12.60;6.30;;;;;;;22.60;42.04;98548.74;267504;1256;22578;-71
2023/03/23 20:35:39;;;;;;;10.50;5.70;;;;;;;22.54;42.23;98550.66;268720;1266;22536;-71
2023/03/23 20:41:42;;;;;;;9.60;5.80;;;;;;;22.48;42.44;98552.59;267307;1262;22528;-72
2023/03/23 20:47:44;;;;;;;10.60;6.20;;;;;;;22.65;42.39;98559.77;268245;1268;22528;-73
2023/03/23 20:53:47;;;;;;;9.10;5.60;;;;;;;22.73;42.36;98574.92;266820;1266;24368;-71
2023/03/23 20:59:52;;;;;;;9.20;5.30;;;;;;;22.76;42.47;98577.79;267831;1266;23049;-71
2023/03/23 21:05:54;;;;;;;10.40;5.40;;;;;;;22.96;42.29;98580.36;268060;1269;22534;-81
2023/03/23 21:11:56;;;;;;;8.70;5.20;;;;;;;23.16;42.13;98579.95;268720;1272;22578;-81
2023/03/23 21:17:59;;;;;;;9.80;5.00;;;;;;;23.01;42.40;98586.20;268420;1266;22541;-75
2023/03/23 21:24:00;;;;;;;7.60;5.00;;;;;;;23.12;42.30;98584.56;267383;1262;22677;-75
2023/03/23 21:30:04;;;;;;;8.30;4.50;;;;;;;23.22;42.20;98577.16;267289;1265;22546;-74
2023/03/23 21:36:06;;;;;;;10.30;5.30;;;;;;;23.25;42.14;98563.66;267758;1267;24503;-75
2023/03/23 21:42:08;;;;;;;8.60;4.50;;;;;;;23.00;42.66;98555.46;267319;1262;22539;-74
2023/03/23 21:48:11;;;;;;;8.80;5.20;;;;;;;23.17;42.49;98549.81;268069;1269;23338;-79
2023/03/23 21:54:13;;;;;;;8.00;4.20;;;;;;;23.29;42.38;98557.09;268683;1269;22648;-76
2023/03/23 22:00:14;;;;;;;9.40;4.60;;;;;;;23.07;42.74;98565.70;268423;1269;24312;-77
2023/03/23 22:06:23;;;;;;;6.50;3.90;;;;;;;22.98;42.82;98568.36;268438;1268;24126;-78
2023/03/23 22:12:25;;;;;;;8.90;4.40;;;;;;;22.62;43.38;98562.84;268391;1271;24214;-79
2023/03/23 22:18:27;;;;;;;9.10;4.20;;;;;;;22.57;43.57;98572.48;268471;1261;24180;-79
2023/03/23 22:24:29;;;;;;;7.20;4.10;;;;;;;22.57;43.60;98581.77;268387;1274;22670;-79
2023/03/23 22:30:32;;;;;;;6.20;4.00;;;;;;;22.65;43.48;98583.88;268842;1272;22568;-77
2023/03/23 22:36:33;;;;;;;8.70;4.40;;;;;;;22.78;43.32;98588.46;267939;1273;22546;-79
2023/03/23 22:42:35;;;;;;;7.80;4.00;;;;;;;22.77;43.75;98590.03;268913;1274;22738;-78
2023/03/23 22:48:37;;;;;;;8.50;4.20;;;;;;;22.77;43.74;98592.55;268195;1274;24411;-78
2023/03/23 22:54:39;;;;;;;6.90;3.70;;;;;;;22.74;43.79;98594.75;267896;1271;22645;-79
2023/03/23 23:00:45;;;;;;;7.50;4.30;;;;;;;22.79;43.69;98597.98;268843;1253;22534;-78
2023/03/23 23:06:47;;;;;;;9.00;4.30;;;;;;;22.74;44.01;98600.55;268262;1269;22591;-76
2023/03/23 23:12:49;;;;;;;8.90;4.70;;;;;;;22.64;44.48;98592.66;267907;1262;22532;-77
2023/03/23 23:18:51;;;;;;;9.00;4.40;;;;;;;22.66;44.55;98592.03;268250;1269;24291;-76
2023/03/23 23:24:53;;;;;;;7.00;4.50;;;;;;;22.58;44.74;98592.62;268589;1266;22527;-78
2023/03/23 23:30:55;;;;;;;5.70;3.80;;;;;;;22.54;44.77;98591.91;269949;1267;22571;-78
2023/03/23 23:36:58;;;;;;;6.80;4.50;;;;;;;22.56;44.94;98582.21;268272;1273;22553;-78
2023/03/23 23:43:01;;;;;;;6.50;4.00;;;;;;;22.57;44.92;98581.73;268547;1269;23007;-80
2023/03/23 23:49:03;;;;;;;7.40;3.80;;;;;;;22.69;44.68;98582.19;269033;1274;22608;-78
2023/03/23 23:55:06;;;;;;;10.10;4.50;;;;;;;22.61;44.79;98578.45;269611;1266;22569;-77
